Time;durP1;ratioP1;P1;durP2;ratioP2;P2;SDS_P1;SDS_P2;PMS_P1;PMS_P2;Temp;Humidity;BMP_temperature;BMP_pressure;BME280_temperature;BME280_humidity;BME280_pressure;Samples;Min_cycle;Max_cycle;Signal;HPM_P1;HPM_P2
2021/10/05 00:00:07;;;;;;;25.37;13.90;;;11.70;99.90;;;;;;4410477;32;20123;-66
2021/10/05 00:02:34;;;;;;;25.57;13.73;;;11.70;99.90;;;;;;4408788;32;20168;-67
2021/10/05 00:05:01;;;;;;;25.33;14.00;;;11.70;99.90;;;;;;4408420;32;20146;-66
2021/10/05 00:07:28;;;;;;;27.43;13.57;;;11.70;99.90;;;;;;4410064;32;20446;-67
2021/10/05 00:09:55;;;;;;;26.10;14.47;;;11.60;99.90;;;;;;4410291;32;20120;-66
2021/10/05 00:12:23;;;;;;;27.40;14.20;;;11.60;99.90;;;;;;4408592;32;20132;-66
2021/10/05 00:14:50;;;;;;;24.43;14.07;;;11.60;99.90;;;;;;4408499;32;20461;-66
2021/10/05 00:17:19;;;;;;;26.47;13.73;;;11.60;99.90;;;;;;4408695;32;20446;-66
2021/10/05 00:19:46;;;;;;;25.03;13.40;;;11.60;99.90;;;;;;4408346;32;20438;-67
2021/10/05 00:22:14;;;;;;;27.10;14.00;;;11.60;99.90;;;;;;4410081;32;20430;-66
2021/10/05 00:24:42;;;;;;;30.23;13.97;;;11.60;99.90;;;;;;4410212;32;20204;-67
2021/10/05 00:27:09;;;;;;;26.97;13.83;;;11.50;99.90;;;;;;4408457;32;20205;-70
2021/10/05 00:29:36;;;;;;;27.43;13.20;;;11.50;99.90;;;;;;4408145;32;20135;-67
2021/10/05 00:32:04;;;;;;;27.43;14.57;;;11.50;99.90;;;;;;4409698;32;20116;-66
2021/10/05 00:34:31;;;;;;;26.07;13.43;;;11.50;99.90;;;;;;4412736;32;20143;-66
2021/10/05 00:36:58;;;;;;;24.93;13.60;;;11.40;99.90;;;;;;4411874;32;20434;-66
2021/10/05 00:39:26;;;;;;;22.10;13.10;;;11.40;99.90;;;;;;4413019;32;20426;-66
2021/10/05 00:41:53;;;;;;;31.33;14.20;;;11.40;99.90;;;;;;4411356;32;20446;-66
2021/10/05 00:44:36;;;;;;;24.87;13.77;;;11.40;99.90;;;;;;4412670;32;20340;-67
2021/10/05 00:47:09;;;;;;;24.73;13.10;;;11.40;99.90;;;;;;4411166;32;20457;-66
2021/10/05 00:49:37;;;;;;;25.27;13.70;;;11.30;99.90;;;;;;4411006;32;20135;-66
2021/10/05 00:52:05;;;;;;;25.83;13.53;;;11.20;99.90;;;;;;4411148;32;20177;-66
2021/10/05 00:54:35;;;;;;;28.00;14.17;;;11.30;99.90;;;;;;4412703;32;20295;-66
2021/10/05 00:57:02;;;;;;;29.63;13.90;;;11.20;99.90;;;;;;4412482;32;20147;-66
2021/10/05 00:59:33;;;;;;;24.97;13.80;;;11.20;99.90;;;;;;4412738;32;20389;-66
2021/10/05 01:02:01;;;;;;;27.87;14.33;;;11.20;99.90;;;;;;4399987;32;20159;-66
2021/10/05 01:04:29;;;;;;;28.43;14.17;;;11.20;99.90;;;;;;4412598;32;20218;-67
2021/10/05 01:07:00;;;;;;;28.03;13.87;;;11.20;99.90;;;;;;4412677;32;20180;-66
2021/10/05 01:09:28;;;;;;;27.37;14.50;;;11.10;99.90;;;;;;4412144;32;20127;-66
2021/10/05 01:11:55;;;;;;;27.07;13.57;;;11.10;99.90;;;;;;4412257;32;20401;-66
2021/10/05 01:14:22;;;;;;;25.57;13.87;;;11.10;99.90;;;;;;4411876;32;20202;-66
2021/10/05 01:16:53;;;;;;;27.07;13.87;;;11.10;99.90;;;;;;4412425;32;20123;-66
2021/10/05 01:19:20;;;;;;;23.43;13.13;;;11.10;99.90;;;;;;4410512;32;20120;-66
2021/10/05 01:21:47;;;;;;;26.60;14.23;;;11.10;99.90;;;;;;4412674;32;20173;-68
2021/10/05 01:24:16;;;;;;;28.13;14.43;;;11.00;99.90;;;;;;4411820;32;20155;-67
2021/10/05 01:26:43;;;;;;;29.93;13.90;;;11.00;99.90;;;;;;4411819;32;20167;-66
2021/10/05 01:29:14;;;;;;;23.10;14.10;;;11.00;99.90;;;;;;4420205;32;20212;-67
2021/10/05 01:31:44;;;;;;;22.87;13.93;;;11.00;99.90;;;;;;4412234;32;20198;-66
2021/10/05 01:34:11;;;;;;;25.47;14.13;;;10.90;99.90;;;;;;4412217;32;20497;-66
2021/10/05 01:36:38;;;;;;;26.77;14.33;;;10.90;99.90;;;;;;4411259;32;20421;-66
2021/10/05 01:39:27;;;;;;;28.20;14.10;;;10.90;99.90;;;;;;4412266;32;20178;-69
2021/10/05 01:41:58;;;;;;;26.90;14.17;;;10.80;99.90;;;;;;4412181;32;20163;-66
2021/10/05 01:44:25;;;;;;;24.97;14.77;;;10.80;99.90;;;;;;4411632;32;20131;-66
2021/10/05 01:46:52;;;;;;;27.10;14.13;;;10.80;99.90;;;;;;4412206;32;20116;-66
2021/10/05 01:49:23;;;;;;;25.63;14.37;;;10.80;99.90;;;;;;4396793;32;20185;-66
2021/10/05 01:51:51;;;;;;;25.00;14.50;;;10.80;99.90;;;;;;4411966;32;20136;-66
2021/10/05 01:54:19;;;;;;;30.23;15.53;;;10.80;99.90;;;;;;4412023;32;20120;-66
2021/10/05 01:56:46;;;;;;;29.07;15.37;;;10.80;99.90;;;;;;4410958;32;20147;-66
2021/10/05 01:59:13;;;;;;;28.60;14.83;;;10.70;99.90;;;;;;4411890;32;20143;-67
2021/10/05 02:01:39;;;;;;;28.30;15.10;;;10.70;99.90;;;;;;4411953;32;20136;-66
2021/10/05 02:04:07;;;;;;;30.07;15.30;;;10.70;99.90;;;;;;4411344;32;20142;-66
2021/10/05 02:06:35;;;;;;;30.80;15.60;;;10.70;99.90;;;;;;4411327;32;20135;-65
2021/10/05 02:09:04;;;;;;;26.27;15.33;;;10.70;99.90;;;;;;4410069;32;20157;-66
2021/10/05 02:11:31;;;;;;;30.10;15.27;;;10.60;99.90;;;;;;4410149;32;20212;-65
2021/10/05 02:13:58;;;;;;;26.03;14.93;;;10.70;99.90;;;;;;4411440;32;20136;-66
2021/10/05 02:16:24;;;;;;;28.30;16.00;;;10.70;99.90;;;;;;4409981;32;20229;-66
2021/10/05 02:18:51;;;;;;;29.57;15.87;;;10.60;99.90;;;;;;4410018;32;20181;-66
2021/10/05 02:21:19;;;;;;;30.37;15.70;;;10.60;99.90;;;;;;4411731;32;20124;-66
2021/10/05 02:26:34;;;;;;;28.70;14.87;;;10.60;99.90;;;;;;4410442;32;20193;-67
2021/10/05 02:29:01;;;;;;;30.27;15.60;;;10.60;99.90;;;;;;4410587;32;20139;-66
2021/10/05 02:31:28;;;;;;;29.63;15.60;;;10.60;99.90;;;;;;4411485;32;20370;-66
2021/10/05 02:33:55;;;;;;;28.70;15.13;;;10.50;99.90;;;;;;4409774;32;20159;-66
2021/10/05 02:36:22;;;;;;;28.63;15.60;;;10.50;99.90;;;;;;4409879;32;20147;-67
2021/10/05 02:38:49;;;;;;;29.90;15.70;;;10.50;99.90;;;;;;4411159;32;20134;-66
2021/10/05 02:41:15;;;;;;;32.50;16.03;;;10.50;99.90;;;;;;4411400;32;20124;-67
2021/10/05 02:43:42;;;;;;;27.23;15.23;;;10.50;99.90;;;;;;4410613;32;20127;-66
2021/10/05 02:46:09;;;;;;;31.77;16.03;;;10.50;99.90;;;;;;4410938;32;20119;-67
2021/10/05 02:48:36;;;;;;;30.87;14.77;;;10.50;99.90;;;;;;4409498;32;20153;-66
2021/10/05 02:51:03;;;;;;;27.33;15.20;;;10.40;99.90;;;;;;4409433;32;20450;-66
2021/10/05 02:53:29;;;;;;;28.80;15.50;;;10.50;99.90;;;;;;4409360;32;20398;-67
2021/10/05 02:55:56;;;;;;;28.23;15.23;;;10.40;99.90;;;;;;4410196;32;20151;-67
2021/10/05 02:58:23;;;;;;;28.97;15.23;;;10.40;99.90;;;;;;4409000;32;20131;-66
2021/10/05 03:00:50;;;;;;;27.53;15.17;;;10.40;99.90;;;;;;4411167;32;20177;-66
2021/10/05 03:03:17;;;;;;;28.43;14.97;;;10.40;99.90;;;;;;4411100;32;20174;-67
2021/10/05 03:05:44;;;;;;;26.37;14.77;;;10.40;99.90;;;;;;4411045;32;20188;-66
2021/10/05 03:08:11;;;;;;;25.80;15.17;;;10.40;99.90;;;;;;4409989;32;20394;-66
2021/10/05 03:10:38;;;;;;;27.93;15.43;;;10.40;99.90;;;;;;4409081;32;20173;-66
2021/10/05 03:13:05;;;;;;;29.80;15.20;;;10.30;99.90;;;;;;4409148;32;20438;-66
2021/10/05 03:15:32;;;;;;;29.50;15.60;;;10.20;99.90;;;;;;4410523;32;20534;-66
2021/10/05 03:17:59;;;;;;;25.93;14.70;;;10.20;99.90;;;;;;4410681;32;20139;-66
2021/10/05 03:20:26;;;;;;;31.13;15.67;;;10.20;99.90;;;;;;4408812;32;20136;-66
2021/10/05 03:22:52;;;;;;;25.70;14.83;;;10.20;99.90;;;;;;4410713;32;20127;-66
2021/10/05 03:25:20;;;;;;;25.43;14.50;;;10.20;99.90;;;;;;4410691;32;20124;-66
2021/10/05 03:27:47;;;;;;;26.73;14.90;;;10.10;99.90;;;;;;4408834;32;20147;-66
2021/10/05 03:30:14;;;;;;;29.83;15.50;;;10.20;99.90;;;;;;4410692;32;20411;-66
2021/10/05 03:32:41;;;;;;;29.13;15.13;;;10.20;99.90;;;;;;4408715;32;20418;-66
2021/10/05 03:35:08;;;;;;;31.20;16.47;;;10.10;99.90;;;;;;4409606;32;20119;-66
2021/10/05 03:37:35;;;;;;;30.47;15.73;;;10.20;99.90;;;;;;4408720;32;20151;-66
2021/10/05 03:40:03;;;;;;;29.50;15.33;;;10.20;99.90;;;;;;4410751;32;20159;-66
2021/10/05 03:42:32;;;;;;;30.77;15.37;;;10.10;99.90;;;;;;4410243;32;20413;-66
2021/10/05 03:44:59;;;;;;;29.70;15.17;;;10.10;99.90;;;;;;4408841;32;20131;-66
2021/10/05 03:47:26;;;;;;;27.40;14.43;;;10.10;99.90;;;;;;4410193;32;20428;-67
2021/10/05 03:49:53;;;;;;;28.20;15.47;;;10.10;99.90;;;;;;4410202;32;20201;-66
2021/10/05 03:52:20;;;;;;;28.63;15.43;;;10.10;99.90;;;;;;4410378;32;20124;-67
2021/10/05 03:54:47;;;;;;;28.37;14.70;;;10.10;99.90;;;;;;4410337;32;20120;-67
2021/10/05 03:57:18;;;;;;;28.77;15.53;;;10.20;99.90;;;;;;4410552;32;20147;-67
2021/10/05 03:59:45;;;;;;;29.43;15.70;;;10.20;99.90;;;;;;4409256;32;20139;-67
2021/10/05 04:02:12;;;;;;;26.63;14.90;;;10.20;99.90;;;;;;4410472;32;20159;-66
2021/10/05 04:04:40;;;;;;;24.97;14.30;;;10.20;99.90;;;;;;4408665;32;20143;-66
2021/10/05 04:07:07;;;;;;;27.60;14.47;;;10.20;99.90;;;;;;4410226;32;20130;-66
2021/10/05 04:09:34;;;;;;;28.30;14.53;;;10.30;99.90;;;;;;4412950;32;20409;-66
2021/10/05 04:12:01;;;;;;;23.40;13.93;;;10.30;99.90;;;;;;4411555;32;20123;-66
2021/10/05 04:14:27;;;;;;;26.93;13.87;;;10.30;99.90;;;;;;4413371;32;20132;-67
2021/10/05 04:16:54;;;;;;;27.13;13.80;;;10.30;99.90;;;;;;4411701;32;20178;-66
2021/10/05 04:19:21;;;;;;;25.33;13.20;;;10.30;99.90;;;;;;4411387;32;20450;-66
2021/10/05 04:21:48;;;;;;;30.50;14.03;;;10.30;99.90;;;;;;4411668;32;20120;-66
2021/10/05 04:24:14;;;;;;;27.33;14.17;;;10.20;99.90;;;;;;4411404;32;20147;-66
2021/10/05 04:26:41;;;;;;;28.37;13.93;;;10.30;99.90;;;;;;4411091;32;20204;-66
2021/10/05 04:29:08;;;;;;;23.10;13.27;;;10.20;99.90;;;;;;4411324;32;20131;-66
2021/10/05 04:31:37;;;;;;;28.23;13.90;;;10.20;99.90;;;;;;4412205;32;20123;-66
2021/10/05 04:34:04;;;;;;;27.00;13.90;;;10.20;99.90;;;;;;4411643;32;20196;-65
2021/10/05 04:36:31;;;;;;;27.63;13.37;;;10.10;99.90;;;;;;4403177;32;20143;-66
2021/10/05 04:38:58;;;;;;;26.40;13.90;;;10.10;99.90;;;;;;4416102;32;20140;-67
2021/10/05 04:41:25;;;;;;;29.40;14.03;;;10.20;99.90;;;;;;4411301;32;20192;-66
2021/10/05 04:43:52;;;;;;;29.67;14.00;;;10.20;99.90;;;;;;4411333;32;20136;-67
2021/10/05 04:46:18;;;;;;;22.20;13.37;;;10.20;99.90;;;;;;4412591;32;20132;-68
2021/10/05 04:48:45;;;;;;;26.20;13.63;;;10.20;99.90;;;;;;4412347;32;20143;-66
2021/10/05 04:51:12;;;;;;;27.33;13.43;;;10.10;99.90;;;;;;4412718;32;20124;-66
2021/10/05 04:53:39;;;;;;;26.70;13.30;;;10.20;99.90;;;;;;4411778;32;20132;-66
2021/10/05 04:56:06;;;;;;;23.27;13.33;;;10.20;99.90;;;;;;4411807;32;20208;-65
2021/10/05 04:58:32;;;;;;;23.00;13.80;;;10.20;99.90;;;;;;4412799;32;20193;-66
2021/10/05 05:00:59;;;;;;;24.27;13.10;;;10.10;99.90;;;;;;4412749;32;20396;-67
2021/10/05 05:03:27;;;;;;;24.50;13.70;;;10.20;99.90;;;;;;4412361;32;20128;-67
2021/10/05 05:05:54;;;;;;;25.73;13.40;;;10.20;99.90;;;;;;4411855;32;20127;-67
2021/10/05 05:08:21;;;;;;;23.83;13.33;;;10.10;99.90;;;;;;4412664;32;20192;-66
2021/10/05 05:10:48;;;;;;;25.83;13.77;;;10.20;99.90;;;;;;4412237;32;20132;-66
2021/10/05 05:13:14;;;;;;;23.77;13.70;;;10.10;99.90;;;;;;4412959;32;20123;-67
2021/10/05 05:15:43;;;;;;;21.60;12.47;;;10.10;99.90;;;;;;4412454;32;20424;-66
2021/10/05 05:18:10;;;;;;;23.97;13.03;;;10.20;99.90;;;;;;4410825;32;20426;-66
2021/10/05 05:20:36;;;;;;;21.20;12.57;;;10.20;99.90;;;;;;4411452;32;20119;-66
2021/10/05 05:23:03;;;;;;;23.13;12.30;;;10.20;99.90;;;;;;4412386;32;20397;-67
2021/10/05 05:25:31;;;;;;;22.07;12.37;;;10.20;99.90;;;;;;4418339;32;20388;-67
2021/10/05 05:27:58;;;;;;;24.40;12.83;;;10.10;99.90;;;;;;4414282;32;20132;-66
2021/10/05 05:30:25;;;;;;;25.43;12.53;;;10.20;99.90;;;;;;4410236;32;20188;-67
2021/10/05 05:32:52;;;;;;;21.23;12.17;;;10.20;99.90;;;;;;4410459;32;20120;-68
2021/10/05 05:35:20;;;;;;;21.87;12.00;;;10.20;99.90;;;;;;4411969;32;20146;-68
2021/10/05 05:37:46;;;;;;;22.07;12.17;;;10.20;99.90;;;;;;4409816;32;20139;-68
2021/10/05 05:40:13;;;;;;;24.70;11.70;;;10.20;99.90;;;;;;4411724;32;20273;-67
2021/10/05 05:42:40;;;;;;;22.63;11.37;;;10.20;99.90;;;;;;4410200;32;20119;-66
2021/10/05 05:45:07;;;;;;;23.33;12.20;;;10.20;99.90;;;;;;4411727;32;20402;-67
2021/10/05 05:47:34;;;;;;;23.63;11.87;;;10.20;99.90;;;;;;4410425;32;20151;-66
2021/10/05 05:50:04;;;;;;;20.67;11.60;;;10.20;99.90;;;;;;4411772;32;20404;-66
2021/10/05 05:52:32;;;;;;;24.90;11.57;;;10.20;99.90;;;;;;4410282;32;20119;-66
2021/10/05 05:54:59;;;;;;;22.80;11.03;;;10.20;99.90;;;;;;4412062;32;20240;-68
2021/10/05 05:57:26;;;;;;;21.07;11.70;;;10.20;99.90;;;;;;4411423;32;20147;-68
2021/10/05 05:59:53;;;;;;;19.70;11.83;;;10.30;99.90;;;;;;4411571;32;20185;-68
2021/10/05 06:02:20;;;;;;;21.20;11.00;;;10.40;99.90;;;;;;4411491;32;20186;-68
2021/10/05 06:04:47;;;;;;;26.47;11.67;;;10.50;99.90;;;;;;4411716;32;20442;-68
2021/10/05 06:07:14;;;;;;;20.03;10.93;;;10.50;99.90;;;;;;4412270;32;20501;-68
2021/10/05 06:09:41;;;;;;;22.17;10.87;;;10.60;99.90;;;;;;4417202;32;20135;-67
2021/10/05 06:12:12;;;;;;;19.67;10.50;;;10.60;99.90;;;;;;4411678;32;20184;-69
2021/10/05 06:14:40;;;;;;;20.60;10.37;;;10.70;99.90;;;;;;4411014;32;20131;-67
2021/10/05 06:17:07;;;;;;;17.33;10.27;;;10.80;99.90;;;;;;4411735;32;20491;-67
2021/10/05 06:19:34;;;;;;;20.97;10.40;;;10.90;99.90;;;;;;4411321;32;20392;-67
2021/10/05 06:22:00;;;;;;;19.17;9.57;;;11.00;99.90;;;;;;4408726;32;20206;-68
2021/10/05 06:24:27;;;;;;;20.23;10.07;;;11.10;99.90;;;;;;4411431;32;20172;-67
2021/10/05 06:26:54;;;;;;;18.30;9.80;;;11.20;99.90;;;;;;4410107;32;20204;-67
2021/10/05 06:29:22;;;;;;;17.53;9.90;;;11.20;99.90;;;;;;4410882;32;20189;-67
2021/10/05 06:31:49;;;;;;;16.97;10.20;;;11.30;99.90;;;;;;4411115;32;20173;-67
2021/10/05 06:34:16;;;;;;;19.70;9.63;;;11.40;99.90;;;;;;4411038;32;20123;-67
2021/10/05 06:36:43;;;;;;;21.03;10.23;;;11.50;99.90;;;;;;4409741;32;20579;-67
2021/10/05 06:39:09;;;;;;;20.03;9.57;;;11.60;99.90;;;;;;4411129;32;20173;-67
2021/10/05 06:41:36;;;;;;;22.17;10.13;;;11.70;99.90;;;;;;4409352;32;20131;-68
2021/10/05 06:44:03;;;;;;;18.90;9.27;;;11.80;99.90;;;;;;4409183;32;20181;-66
2021/10/05 06:46:30;;;;;;;19.33;9.77;;;11.80;99.90;;;;;;4410921;32;20177;-67
2021/10/05 06:48:57;;;;;;;20.97;10.33;;;11.90;99.90;;;;;;4409328;32;20194;-67
2021/10/05 06:51:24;;;;;;;17.03;9.33;;;11.90;99.90;;;;;;4409420;32;20204;-68
2021/10/05 06:53:50;;;;;;;23.17;10.00;;;12.00;99.90;;;;;;4409887;32;20149;-68
2021/10/05 06:56:17;;;;;;;19.53;9.70;;;12.00;99.90;;;;;;4410724;32;20201;-69
2021/10/05 06:58:44;;;;;;;26.30;9.50;;;12.10;99.90;;;;;;4410448;32;20394;-67
2021/10/05 07:01:11;;;;;;;19.37;9.17;;;12.10;99.90;;;;;;4410097;32;20488;-67
2021/10/05 07:03:38;;;;;;;17.50;9.20;;;12.20;99.90;;;;;;4410953;32;20172;-66
2021/10/05 07:06:05;;;;;;;20.30;9.60;;;12.20;99.90;;;;;;4409253;32;20131;-67
2021/10/05 07:08:31;;;;;;;22.17;9.57;;;12.20;99.90;;;;;;4410826;32;20136;-67
2021/10/05 07:10:59;;;;;;;20.63;9.93;;;12.10;99.90;;;;;;4409121;32;20446;-67
2021/10/05 07:13:26;;;;;;;18.23;9.57;;;12.20;99.90;;;;;;4414775;32;20139;-67
2021/10/05 07:15:53;;;;;;;19.73;9.63;;;12.20;99.90;;;;;;4411970;32;20136;-66
2021/10/05 07:18:20;;;;;;;22.50;9.87;;;12.30;99.90;;;;;;4410609;32;20128;-67
2021/10/05 07:20:46;;;;;;;17.63;9.33;;;12.40;99.90;;;;;;4410771;32;20119;-68
2021/10/05 07:23:13;;;;;;;19.17;9.60;;;12.40;99.90;;;;;;4410613;32;20119;-66
2021/10/05 07:25:40;;;;;;;19.60;9.30;;;12.60;99.90;;;;;;4409686;32;20116;-67
2021/10/05 07:28:10;;;;;;;17.30;9.83;;;12.70;99.90;;;;;;4408597;32;20453;-66
2021/10/05 07:30:37;;;;;;;17.60;8.93;;;12.80;99.90;;;;;;4408604;32;20445;-67
2021/10/05 07:33:06;;;;;;;13.73;8.87;;;13.00;99.90;;;;;;4410457;32;20158;-66
2021/10/05 07:35:33;;;;;;;18.93;9.73;;;13.10;99.90;;;;;;4410712;32;20173;-67
2021/10/05 07:38:00;;;;;;;18.13;9.87;;;13.20;99.90;;;;;;4410666;32;20456;-67
2021/10/05 07:40:29;;;;;;;17.13;9.60;;;13.30;99.90;;;;;;4408776;32;20119;-67
2021/10/05 07:42:57;;;;;;;17.83;9.20;;;13.40;99.90;;;;;;4408061;32;20515;-66
2021/10/05 07:45:27;;;;;;;17.43;9.17;;;13.50;99.90;;;;;;4410147;32;20202;-67
2021/10/05 07:47:54;;;;;;;15.30;8.97;;;13.50;99.90;;;;;;4410264;32;20184;-67
2021/10/05 07:50:23;;;;;;;17.50;9.67;;;13.60;99.90;;;;;;4408096;32;20132;-66
2021/10/05 07:52:54;;;;;;;15.23;8.67;;;13.60;99.90;;;;;;4414063;32;20211;-66
2021/10/05 07:55:21;;;;;;;13.50;9.07;;;13.70;99.90;;;;;;4414362;32;20237;-65
2021/10/05 07:57:49;;;;;;;14.03;8.90;;;13.90;99.90;;;;;;4409516;32;20204;-66
2021/10/05 08:00:15;;;;;;;16.77;8.77;;;14.20;99.90;;;;;;4408114;32;20134;-66
2021/10/05 08:02:44;;;;;;;15.10;8.40;;;14.80;99.90;;;;;;4408501;32;20506;-65
2021/10/05 08:05:21;;;;;;;15.17;9.07;;;15.20;99.90;;;;;;4410515;32;20182;-66
2021/10/05 08:07:56;;;;;;;14.70;8.43;;;15.80;99.90;;;;;;4410360;32;20207;-66
2021/10/05 08:10:23;;;;;;;17.20;8.20;;;16.50;99.90;;;;;;4408433;32;20143;-65
2021/10/05 08:12:51;;;;;;;15.10;8.23;;;16.60;99.90;;;;;;4410037;32;20145;-66
2021/10/05 08:15:19;;;;;;;14.97;8.70;;;17.10;99.90;;;;;;4408469;32;20146;-66
2021/10/05 08:17:45;;;;;;;14.70;8.77;;;17.40;99.90;;;;;;4410140;32;20402;-66
2021/10/05 08:20:12;;;;;;;12.27;7.97;;;17.60;99.90;;;;;;4410181;32;20120;-67
2021/10/05 08:22:39;;;;;;;14.13;8.07;;;17.70;99.90;;;;;;4410248;32;20131;-67
2021/10/05 08:25:07;;;;;;;15.07;7.63;;;17.90;99.90;;;;;;4409461;32;20196;-67
2021/10/05 08:27:34;;;;;;;21.23;8.17;;;17.90;99.90;;;;;;4409808;32;20179;-67
2021/10/05 08:30:01;;;;;;;11.47;7.67;;;17.90;99.90;;;;;;4409282;32;20677;-67
2021/10/05 08:32:28;;;;;;;14.70;7.47;;;17.90;99.90;;;;;;4409915;32;20398;-67
2021/10/05 08:34:55;;;;;;;14.87;7.47;;;18.40;99.90;;;;;;4408279;32;20123;-67
2021/10/05 08:37:21;;;;;;;16.00;7.73;;;18.40;99.90;;;;;;4407715;32;20151;-67
2021/10/05 08:39:48;;;;;;;12.23;7.57;;;18.90;99.90;;;;;;4409726;32;20115;-67
2021/10/05 08:42:19;;;;;;;15.07;7.87;;;19.20;99.90;;;;;;4409883;32;20374;-66
2021/10/05 08:44:46;;;;;;;11.60;7.10;;;19.50;99.90;;;;;;4409539;32;20473;-67
2021/10/05 08:47:13;;;;;;;14.97;7.43;;;19.50;99.90;;;;;;4409952;32;20123;-67
2021/10/05 08:49:40;;;;;;;14.37;7.87;;;19.70;99.90;;;;;;4411265;32;20161;-67
2021/10/05 08:52:07;;;;;;;14.53;7.80;;;19.90;99.90;;;;;;4415923;32;20147;-67
2021/10/05 08:54:33;;;;;;;13.67;7.60;;;19.90;99.90;;;;;;4410883;32;20181;-68
2021/10/05 08:57:00;;;;;;;15.37;7.50;;;20.10;99.90;;;;;;4411898;32;20143;-67
2021/10/05 08:59:27;;;;;;;12.03;7.40;;;20.10;99.90;;;;;;4412295;32;20120;-67
2021/10/05 09:01:54;;;;;;;13.67;7.00;;;20.40;99.90;;;;;;4412067;32;20549;-67
2021/10/05 09:04:21;;;;;;;15.77;8.03;;;20.70;99.90;;;;;;4411521;32;20127;-67
2021/10/05 09:06:51;;;;;;;13.47;7.63;;;21.00;99.90;;;;;;4412237;32;20155;-68
2021/10/05 09:09:19;;;;;;;9.63;6.70;;;21.30;99.90;;;;;;4411827;32;20124;-64
2021/10/05 09:11:51;;;;;;;14.13;7.67;;;21.50;99.90;;;;;;4410360;32;20135;-65
2021/10/05 09:14:18;;;;;;;13.03;7.33;;;22.00;99.90;;;;;;4410235;32;20203;-64
2021/10/05 09:16:45;;;;;;;12.90;7.20;;;22.50;99.90;;;;;;4410393;32;20457;-64
2021/10/05 09:19:17;;;;;;;11.47;7.10;;;22.50;99.90;;;;;;4411616;32;20173;-66
2021/10/05 09:21:50;;;;;;;12.33;7.10;;;22.50;99.90;;;;;;4416670;32;20193;-65
2021/10/05 09:24:24;;;;;;;12.27;7.70;;;22.60;99.90;;;;;;4411304;32;20151;-65
2021/10/05 09:26:54;;;;;;;10.77;7.30;;;22.80;99.90;;;;;;4410536;32;20143;-66
2021/10/05 09:29:33;;;;;;;12.30;7.07;;;22.60;99.90;;;;;;4410325;32;20123;-65
2021/10/05 09:32:07;;;;;;;11.50;7.33;;;22.40;99.90;;;;;;4411485;32;20158;-64
2021/10/05 09:34:53;;;;;;;14.50;7.50;;;22.40;99.90;;;;;;4410053;32;20528;-64
2021/10/05 09:37:21;;;;;;;13.03;6.97;;;22.80;99.90;;;;;;4410182;32;20415;-65
2021/10/05 09:39:51;;;;;;;12.67;7.40;;;23.30;99.90;;;;;;4412040;32;20257;-66
2021/10/05 09:42:21;;;;;;;15.23;7.50;;;23.20;99.90;;;;;;4411789;32;20192;-66
2021/10/05 09:45:10;;;;;;;11.90;8.10;;;23.20;99.30;;;;;;4411707;32;20128;-65
2021/10/05 09:47:39;;;;;;;14.93;7.57;;;22.80;98.80;;;;;;4411763;32;20120;-66
2021/10/05 09:50:25;;;;;;;11.80;7.40;;;23.00;99.20;;;;;;4411681;32;20384;-65
2021/10/05 09:52:54;;;;;;;13.33;7.50;;;23.40;98.30;;;;;;4410357;32;20449;-66
2021/10/05 09:55:25;;;;;;;16.83;8.10;;;23.50;97.50;;;;;;4410008;32;20120;-65
2021/10/05 09:57:53;;;;;;;15.30;8.50;;;23.50;96.30;;;;;;4411728;32;20135;-65
2021/10/05 10:00:23;;;;;;;18.27;8.60;;;23.30;95.90;;;;;;4411478;32;20127;-65
2021/10/05 10:02:50;;;;;;;14.00;7.97;;;22.90;96.10;;;;;;4411288;32;20119;-65
2021/10/05 10:05:23;;;;;;;12.53;7.80;;;22.40;97.80;;;;;;4410368;32;20128;-67
2021/10/05 10:07:52;;;;;;;12.17;7.63;;;22.40;97.90;;;;;;4419847;32;20527;-65
2021/10/05 10:10:24;;;;;;;12.13;7.57;;;22.90;98.00;;;;;;4409427;32;20163;-65
2021/10/05 10:12:53;;;;;;;14.73;8.00;;;23.30;97.20;;;;;;4408807;32;20149;-65
2021/10/05 10:15:29;;;;;;;12.90;7.90;;;24.00;96.70;;;;;;4409531;32;20147;-65
2021/10/05 10:18:09;;;;;;;13.50;8.50;;;24.10;95.40;;;;;;4410993;32;20388;-66
2021/10/05 10:20:39;;;;;;;11.27;7.90;;;23.80;94.80;;;;;;4410018;32;20203;-65
2021/10/05 10:23:23;;;;;;;15.57;8.43;;;23.80;94.80;;;;;;4409572;32;20492;-65
2021/10/05 10:25:58;;;;;;;14.37;8.30;;;23.50;94.70;;;;;;4409140;32;20151;-66
2021/10/05 10:28:41;;;;;;;10.83;7.90;;;23.70;95.00;;;;;;4410667;32;20147;-66
2021/10/05 10:31:12;;;;;;;14.83;8.50;;;23.70;95.20;;;;;;4410613;32;20470;-65
2021/10/05 10:33:50;;;;;;;15.53;8.10;;;24.00;94.60;;;;;;4409083;32;20161;-65
2021/10/05 10:36:30;;;;;;;13.65;7.72;;;24.30;94.50;;;;;;4409169;32;20139;-65
2021/10/05 10:39:13;;;;;;;14.40;7.87;;;24.80;93.70;;;;;;4409182;32;20127;-66
2021/10/05 10:41:58;;;;;;;13.45;7.68;;;25.00;92.80;;;;;;4410263;32;20139;-65
2021/10/05 10:44:30;;;;;;;12.63;7.60;;;24.80;92.80;;;;;;4410880;32;20150;-66
2021/10/05 10:47:12;;;;;;;14.23;8.30;;;25.10;92.90;;;;;;4413349;32;20147;-65
2021/10/05 10:49:40;;;;;;;18.25;7.60;;;24.90;91.90;;;;;;4413287;32;20135;-66
2021/10/05 10:52:07;;;;;;;14.43;7.95;;;24.70;92.90;;;;;;4410446;32;20382;-65
2021/10/05 10:54:34;;;;;;;14.10;8.02;;;24.60;93.00;;;;;;4410007;32;20154;-69
2021/10/05 10:57:07;;;;;;;12.52;8.15;;;24.50;92.70;;;;;;4410727;32;20144;-69
2021/10/05 10:59:34;;;;;;;14.83;8.00;;;24.60;92.30;;;;;;4410449;32;20139;-69
2021/10/05 11:02:06;;;;;;;15.05;8.32;;;24.90;92.30;;;;;;4408834;32;20157;-68
2021/10/05 11:04:34;;;;;;;15.48;7.93;;;25.00;91.80;;;;;;4408528;32;20198;-68
2021/10/05 11:07:01;;;;;;;13.25;7.60;;;25.40;90.90;;;;;;4408705;32;20146;-68
2021/10/05 11:09:34;;;;;;;13.15;7.82;;;25.40;89.90;;;;;;4409684;32;20120;-68
2021/10/05 11:12:07;;;;;;;12.98;7.75;;;25.50;89.30;;;;;;4409602;32;20128;-68
2021/10/05 11:14:37;;;;;;;15.10;8.02;;;25.40;89.30;;;;;;4410032;32;20539;-68
2021/10/05 11:17:08;;;;;;;11.20;7.85;;;25.50;88.70;;;;;;4407963;32;20131;-69
2021/10/05 11:19:40;;;;;;;15.25;8.20;;;25.60;88.00;;;;;;4409810;32;20312;-68
2021/10/05 11:22:16;;;;;;;13.07;8.20;;;25.80;87.60;;;;;;4409950;32;20445;-68
2021/10/05 11:24:45;;;;;;;14.70;8.30;;;26.20;86.70;;;;;;4408427;32;20468;-68
2021/10/05 11:27:15;;;;;;;12.30;8.23;;;26.20;86.10;;;;;;4408011;32;20144;-69
2021/10/05 11:29:43;;;;;;;16.25;8.75;;;26.90;84.40;;;;;;4409232;32;20184;-69
2021/10/05 11:32:15;;;;;;;13.60;7.80;;;27.20;80.60;;;;;;4409671;32;20178;-69
2021/10/05 11:34:43;;;;;;;14.02;8.18;;;27.50;81.50;;;;;;4417826;32;20136;-67
2021/10/05 11:37:14;;;;;;;13.68;8.35;;;27.80;78.60;;;;;;4408120;32;20143;-68
2021/10/05 11:39:44;;;;;;;14.55;8.15;;;28.40;77.20;;;;;;4408261;32;20120;-67
2021/10/05 11:42:21;;;;;;;12.15;8.07;;;28.60;75.40;;;;;;4409758;32;20135;-68
2021/10/05 11:45:09;;;;;;;15.15;7.97;;;28.10;74.80;;;;;;4409683;32;20180;-68
2021/10/05 11:47:39;;;;;;;15.45;8.30;;;28.10;75.20;;;;;;4346116;33;20141;-68
2021/10/05 11:50:08;;;;;;;13.10;7.90;;;27.80;73.70;;;;;;4347982;33;20153;-67
2021/10/05 11:52:39;;;;;;;16.15;8.10;;;27.80;75.90;;;;;;4352264;33;20180;-68
2021/10/05 11:55:07;;;;;;;14.13;8.63;;;28.30;74.20;;;;;;4349162;33;20151;-68
2021/10/05 11:57:34;;;;;;;14.40;8.15;;;27.90;74.00;;;;;;4347552;33;20165;-67
2021/10/05 12:00:07;;;;;;;15.55;8.05;;;28.50;74.70;;;;;;4348046;33;20445;-66
2021/10/05 12:02:41;;;;;;;14.43;8.65;;;28.70;71.30;;;;;;4347793;33;20601;-67
2021/10/05 12:05:21;;;;;;;13.55;8.57;;;28.80;71.20;;;;;;4363165;32;20165;-67
2021/10/05 12:07:47;;;;;;;18.55;8.52;;;28.50;70.90;;;;;;4409775;32;20119;-68
2021/10/05 12:10:16;;;;;;;12.25;7.70;;;28.50;70.50;;;;;;4409964;32;20124;-68
2021/10/05 12:12:43;;;;;;;17.40;8.68;;;28.50;71.30;;;;;;4408407;32;20128;-68
2021/10/05 12:15:20;;;;;;;15.10;8.05;;;28.90;69.80;;;;;;4407988;32;20523;-68
2021/10/05 12:18:07;;;;;;;16.17;8.00;;;28.80;70.00;;;;;;4409728;32;20233;-68
2021/10/05 12:21:05;;;;;;;12.37;7.85;;;29.20;68.70;;;;;;4407788;32;20181;-67
2021/10/05 12:23:33;;;;;;;19.45;8.90;;;29.10;68.60;;;;;;4412835;32;20211;-68
2021/10/05 12:26:10;;;;;;;17.23;8.70;;;28.90;68.10;;;;;;4412588;32;20519;-68
2021/10/05 12:28:38;;;;;;;12.60;8.13;;;29.00;68.00;;;;;;4410015;32;20147;-68
2021/10/05 12:31:12;;;;;;;11.57;7.93;;;29.10;68.00;;;;;;4413983;32;20240;-69
2021/10/05 12:33:39;;;;;;;14.18;8.93;;;29.90;66.90;;;;;;4417370;32;20157;-66
2021/10/05 12:36:06;;;;;;;12.40;7.97;;;29.80;65.70;;;;;;4410641;32;20193;-67
2021/10/05 12:38:36;;;;;;;16.37;8.02;;;29.60;65.90;;;;;;4411079;32;20120;-68
2021/10/05 12:41:09;;;;;;;13.88;7.87;;;29.80;66.00;;;;;;4412196;32;20127;-68